Time;durP1;ratioP1;P1;durP2;ratioP2;P2;SDS_P1;SDS_P2;PMS_P1;PMS_P2;Temp;Humidity;BMP_temperature;BMP_pressure;BME280_temperature;BME280_humidity;BME280_pressure;Samples;Min_cycle;Max_cycle;Signal;HPM_P1;HPM_P2
2022/03/01 00:00:17;;;;;;;13.68;6.88;;;;;;;1.94;57.49;99771.44;5071841;28;20044;-94
2022/03/01 00:02:44;;;;;;;12.23;5.95;;;;;;;1.97;57.69;99785.50;5072895;28;20040;-94
2022/03/01 00:05:09;;;;;;;9.95;5.53;;;;;;;1.75;58.52;99739.53;5091494;28;20048;-95
2022/03/01 00:07:35;;;;;;;10.80;6.32;;;;;;;1.85;58.38;99767.75;5091429;28;20040;-94
2022/03/01 00:10:02;;;;;;;16.60;6.90;;;;;;;1.88;58.88;99756.44;5091521;28;20493;-94
2022/03/01 00:12:30;;;;;;;14.88;6.18;;;;;;;1.94;58.70;99761.84;5092306;28;20040;-93
2022/03/01 00:14:56;;;;;;;12.25;6.10;;;;;;;1.75;58.67;99750.03;5091626;28;20044;-94
2022/03/01 00:17:22;;;;;;;9.73;6.07;;;;;;;1.76;58.80;99749.19;5073946;28;20513;-94
2022/03/01 00:19:53;;;;;;;14.13;6.82;;;;;;;1.80;58.24;99753.66;5071399;28;20060;-95
2022/03/01 00:22:22;;;;;;;13.77;5.90;;;;;;;2.00;58.08;99768.97;5072231;28;20063;-94
2022/03/01 00:24:47;;;;;;;20.65;6.47;;;;;;;1.94;58.25;99759.22;5071017;28;20502;-95
2022/03/01 00:27:13;;;;;;;11.55;6.30;;;;;;;1.90;58.04;99752.13;5071010;28;20094;-94
2022/03/01 00:29:41;;;;;;;11.20;6.63;;;;;;;1.79;58.59;99745.75;5072210;28;20033;-95
2022/03/01 00:32:08;;;;;;;12.55;5.60;;;;;;;1.88;58.38;99772.19;5060031;28;20076;-95
2022/03/01 00:34:34;;;;;;;12.02;5.72;;;;;;;1.89;58.49;99779.22;5057230;28;20529;-95
2022/03/01 00:37:02;;;;;;;10.80;5.40;;;;;;;2.05;57.95;99778.72;5057902;28;20037;-93
2022/03/01 00:39:28;;;;;;;11.90;5.88;;;;;;;2.09;58.77;99770.94;5057108;28;20045;-95
2022/03/01 00:41:54;;;;;;;12.82;5.97;;;;;;;2.07;57.97;99773.50;5057552;28;20037;-94
2022/03/01 00:44:20;;;;;;;12.65;5.45;;;;;;;2.04;58.03;99763.84;5057494;28;20037;-95
2022/03/01 00:46:47;;;;;;;12.07;5.93;;;;;;;1.97;58.04;99761.03;5057593;28;20041;-95
2022/03/01 00:49:13;;;;;;;11.73;5.43;;;;;;;1.96;58.26;99770.63;5056992;28;20414;-95
2022/03/01 00:51:42;;;;;;;10.95;5.47;;;;;;;1.82;59.05;99758.91;5057402;28;20095;-94
2022/03/01 00:54:08;;;;;;;12.63;5.65;;;;;;;1.82;59.43;99769.41;5057536;28;20094;-94
2022/03/01 00:56:34;;;;;;;15.75;5.53;;;;;;;1.69;60.12;99749.00;5057094;28;20049;-95
2022/03/01 00:59:00;;;;;;;12.70;7.35;;;;;;;1.53;60.54;99734.63;5057984;28;20044;-95
2022/03/01 01:01:26;;;;;;;12.07;5.82;;;;;;;1.43;61.26;99733.50;5057379;28;20033;-95
2022/03/01 01:03:53;;;;;;;10.60;5.65;;;;;;;1.36;61.82;99729.84;5057587;28;20037;-96
2022/03/01 01:06:19;;;;;;;12.50;7.10;;;;;;;1.40;61.55;99730.81;5058288;28;20072;-93
2022/03/01 01:08:45;;;;;;;12.20;6.05;;;;;;;1.35;61.96;99743.81;5057196;28;20045;-94
2022/03/01 01:11:11;;;;;;;10.57;5.88;;;;;;;1.40;62.04;99754.41;5057355;28;20053;-95
2022/03/01 01:13:37;;;;;;;15.05;5.85;;;;;;;1.38;62.61;99767.47;5056795;28;20083;-95
2022/03/01 01:16:09;;;;;;;12.55;5.72;;;;;;;1.38;62.84;99775.31;5056434;28;20048;-95
2022/03/01 01:18:37;;;;;;;12.77;6.00;;;;;;;1.36;63.33;99766.53;5056464;28;20049;-95
2022/03/01 01:21:04;;;;;;;12.23;5.25;;;;;;;1.40;62.82;99744.78;5056129;28;20290;-94
2022/03/01 01:23:30;;;;;;;13.45;6.05;;;;;;;1.55;63.09;99774.88;5056819;28;20455;-94
2022/03/01 01:25:56;;;;;;;12.63;5.65;;;;;;;1.56;62.97;99768.78;5056892;28;20064;-94
2022/03/01 01:28:24;;;;;;;10.38;5.28;;;;;;;1.38;63.21;99743.88;5056529;28;20132;-95
2022/03/01 01:30:50;;;;;;;12.70;6.53;;;;;;;1.61;62.93;99777.66;5058730;28;20056;-95
2022/03/01 01:33:16;;;;;;;16.52;6.18;;;;;;;1.42;63.10;99745.72;5057229;28;20517;-95
2022/03/01 01:35:42;;;;;;;14.40;6.40;;;;;;;1.46;63.85;99769.41;5056129;28;20055;-95
2022/03/01 01:38:09;;;;;;;11.65;5.95;;;;;;;1.30;64.31;99758.53;5055949;28;20041;-95
2022/03/01 01:40:38;;;;;;;11.73;5.90;;;;;;;1.38;64.09;99767.47;5057070;28;20064;-94
2022/03/01 01:43:06;;;;;;;12.57;5.93;;;;;;;1.28;64.51;99768.09;5054986;28;20037;-94
2022/03/01 01:45:32;;;;;;;10.27;5.88;;;;;;;1.29;65.13;99785.56;5055757;28;20561;-94
2022/03/01 01:47:59;;;;;;;11.20;4.82;;;;;;;1.12;66.92;99779.00;5055725;28;20076;-94
2022/03/01 01:50:27;;;;;;;13.57;5.25;;;;;;;0.96;67.58;99764.59;5056078;28;20561;-95
2022/03/01 01:52:56;;;;;;;17.27;5.80;;;;;;;0.81;68.30;99747.63;5055979;28;20490;-94
2022/03/01 01:55:26;;;;;;;12.48;5.80;;;;;;;1.10;67.37;99785.91;5055752;28;20099;-95
2022/03/01 01:57:52;;;;;;;14.68;6.30;;;;;;;1.11;66.68;99779.84;5055458;28;20037;-94
2022/03/01 02:00:20;;;;;;;13.23;5.93;;;;;;;1.00;68.10;99764.72;5055493;28;20398;-95
2022/03/01 02:02:46;;;;;;;13.03;5.93;;;;;;;0.94;67.60;99756.69;5055425;28;20049;-95
2022/03/01 02:05:13;;;;;;;17.33;5.53;;;;;;;1.08;67.69;99783.25;5055637;28;20151;-95
2022/03/01 02:07:45;;;;;;;14.15;6.28;;;;;;;0.96;67.47;99741.91;5055615;28;20049;-96
2022/03/01 02:10:11;;;;;;;12.60;5.53;;;;;;;1.12;66.92;99761.53;5055396;28;20579;-96
2022/03/01 02:12:39;;;;;;;11.48;5.65;;;;;;;1.25;66.54;99761.88;5055665;28;20049;-95
2022/03/01 02:15:05;;;;;;;10.63;5.93;;;;;;;1.25;66.65;99754.88;5055223;28;20049;-95
2022/03/01 02:17:32;;;;;;;13.85;6.03;;;;;;;1.26;67.58;99758.38;5055191;28;20052;-95
2022/03/01 02:19:59;;;;;;;11.68;5.57;;;;;;;1.15;68.60;99750.25;5054700;28;20092;-94
2022/03/01 02:22:33;;;;;;;11.65;5.57;;;;;;;1.15;68.18;99752.88;5055159;28;20120;-95
2022/03/01 02:25:00;;;;;;;18.83;6.22;;;;;;;1.07;68.31;99747.44;5055170;28;20045;-94
2022/03/01 02:27:25;;;;;;;10.50;5.43;;;;;;;1.18;68.21;99759.09;5055215;28;20430;-94
2022/03/01 02:29:51;;;;;;;9.63;5.28;;;;;;;1.03;67.48;99727.25;5055075;28;20124;-95
2022/03/01 02:32:17;;;;;;;12.50;5.20;;;;;;;0.89;69.14;99731.22;5054957;28;20059;-95
2022/03/01 02:34:43;;;;;;;24.00;6.20;;;;;;;0.80;70.31;99726.63;5055369;28;20049;-95
2022/03/01 02:37:09;;;;;;;9.05;6.03;;;;;;;0.92;69.60;99761.00;5054942;28;20113;-96
2022/03/01 02:39:36;;;;;;;10.50;5.57;;;;;;;0.81;69.17;99736.25;5054833;28;20490;-95
2022/03/01 02:42:02;;;;;;;12.98;6.47;;;;;;;0.83;69.05;99731.97;5055203;28;20104;-95
2022/03/01 02:44:28;;;;;;;10.00;5.30;;;;;;;1.07;68.58;99767.50;5054903;28;20136;-95
2022/03/01 02:46:54;;;;;;;12.38;6.38;;;;;;;1.14;68.48;99761.59;5054909;28;20083;-94
2022/03/01 02:49:20;;;;;;;11.05;6.05;;;;;;;1.17;68.24;99752.09;5055257;28;20132;-95
2022/03/01 02:51:46;;;;;;;11.50;6.10;;;;;;;1.17;67.66;99752.09;5055261;28;20528;-94
2022/03/01 02:54:11;;;;;;;12.05;5.72;;;;;;;1.19;67.22;99752.09;5071633;28;20135;-94
2022/03/01 02:56:39;;;;;;;12.15;5.53;;;;;;;1.46;64.85;99772.03;5071960;28;20055;-93
2022/03/01 02:59:06;;;;;;;11.85;5.57;;;;;;;1.53;63.72;99766.97;5055566;28;20047;-94
2022/03/01 03:01:33;;;;;;;10.85;5.45;;;;;;;1.50;63.56;99752.91;5054430;28;20041;-94
2022/03/01 03:03:59;;;;;;;11.82;5.15;;;;;;;1.70;63.30;99766.50;5054645;28;20045;-93
2022/03/01 03:06:27;;;;;;;11.43;5.63;;;;;;;1.50;64.23;99743.31;5054960;28;20083;-94
2022/03/01 03:08:53;;;;;;;8.85;5.05;;;;;;;1.59;64.51;99766.25;5054533;28;20582;-93
2022/03/01 03:11:19;;;;;;;11.57;5.43;;;;;;;1.31;64.69;99739.34;5054339;28;20127;-94
2022/03/01 03:13:46;;;;;;;11.90;5.60;;;;;;;1.36;64.83;99737.69;5054524;28;20044;-94
2022/03/01 03:16:16;;;;;;;11.57;5.70;;;;;;;1.38;65.32;99764.84;5054629;28;20037;-95
2022/03/01 03:18:42;;;;;;;12.00;5.75;;;;;;;1.30;65.67;99755.91;5054730;28;20049;-95
2022/03/01 03:21:10;;;;;;;10.25;6.00;;;;;;;1.24;65.35;99755.75;5055352;28;20049;-94
2022/03/01 03:23:36;;;;;;;13.80;5.85;;;;;;;1.12;65.47;99734.47;5054779;28;20045;-94
2022/03/01 03:26:05;;;;;;;9.25;5.35;;;;;;;1.15;65.53;99745.00;5062894;28;20041;-94
2022/03/01 03:28:31;;;;;;;11.98;5.97;;;;;;;1.30;65.56;99781.22;5074580;28;20127;-94
2022/03/01 03:31:02;;;;;;;11.93;5.85;;;;;;;1.23;65.77;99785.41;5074351;28;20040;-94
2022/03/01 03:33:28;;;;;;;10.25;5.25;;;;;;;1.28;66.29;99782.91;5074184;28;20048;-95
2022/03/01 03:35:54;;;;;;;12.95;5.32;;;;;;;0.94;66.74;99761.94;5054284;28;20045;-93
2022/03/01 03:38:20;;;;;;;11.05;5.10;;;;;;;1.10;65.96;99768.47;5054383;28;20132;-94
2022/03/01 03:40:48;;;;;;;10.30;5.05;;;;;;;1.06;67.48;99782.31;5054119;28;20132;-95
2022/03/01 03:43:14;;;;;;;10.35;5.55;;;;;;;0.94;68.21;99769.78;5053890;28;20052;-94
2022/03/01 03:45:40;;;;;;;11.27;6.10;;;;;;;0.75;69.13;99754.41;5053996;28;20041;-94
2022/03/01 03:48:08;;;;;;;12.82;5.65;;;;;;;0.49;69.48;99736.22;5054004;28;20087;-96
2022/03/01 03:50:33;;;;;;;9.52;5.57;;;;;;;0.51;70.10;99760.72;5054491;28;20435;-94
2022/03/01 03:52:59;;;;;;;10.75;5.90;;;;;;;0.51;70.53;99776.41;5054257;28;20076;-95
2022/03/01 03:55:28;;;;;;;14.52;5.53;;;;;;;0.58;70.75;99775.75;5054032;28;20044;-95
2022/03/01 03:57:54;;;;;;;13.02;5.40;;;;;;;0.64;69.68;99782.03;5054041;28;20049;-94
2022/03/01 04:00:20;;;;;;;13.32;6.93;;;;;;;0.56;68.41;99739.91;5054519;28;20051;-95
2022/03/01 04:02:49;;;;;;;11.80;5.63;;;;;;;0.93;66.69;99778.50;5055864;28;20132;-95
2022/03/01 04:05:35;;;;;;;12.32;5.68;;;;;;;0.99;65.48;99748.97;5055816;28;20101;-95
2022/03/01 04:08:21;;;;;;;11.95;5.75;;;;;;;1.06;64.64;99761.38;5078237;28;20044;-95
2022/03/01 04:11:07;;;;;;;10.07;5.45;;;;;;;1.08;64.46;99749.19;5078162;28;20044;-95
2022/03/01 04:13:53;;;;;;;11.50;5.22;;;;;;;1.14;63.23;99751.09;5076749;28;20052;-94
2022/03/01 04:16:42;;;;;;;8.95;5.25;;;;;;;1.09;63.81;99761.47;5078082;28;20040;-95
2022/03/01 04:19:28;;;;;;;11.47;5.90;;;;;;;1.14;62.65;99756.34;5059048;28;20049;-94
2022/03/01 04:22:15;;;;;;;8.18;4.50;;;;;;;1.05;62.20;99727.28;5057052;28;20049;-93
2022/03/01 04:25:02;;;;;;;11.80;5.53;;;;;;;1.20;61.91;99756.50;5071050;28;20052;-96
2022/03/01 04:27:49;;;;;;;8.02;4.47;;;;;;;1.15;62.01;99751.16;5072826;28;20037;-94
2022/03/01 04:30:35;;;;;;;9.57;4.78;;;;;;;1.14;62.81;99753.72;5056131;28;20068;-94
2022/03/01 04:33:24;;;;;;;9.15;5.10;;;;;;;1.06;62.39;99732.56;5056382;28;20045;-95
2022/03/01 04:36:13;;;;;;;8.90;4.28;;;;;;;1.13;62.57;99757.19;5056197;28;20041;-94
2022/03/01 04:39:01;;;;;;;10.63;5.28;;;;;;;1.12;62.40;99743.19;5057528;28;20041;-93
2022/03/01 04:41:48;;;;;;;11.45;4.93;;;;;;;0.99;63.06;99728.88;5075916;28;20517;-95
2022/03/01 04:44:35;;;;;;;9.93;5.13;;;;;;;1.08;63.16;99754.44;5074861;28;20048;-93
2022/03/01 04:47:21;;;;;;;9.77;5.05;;;;;;;1.13;62.71;99742.38;5076041;28;20052;-94
2022/03/01 04:50:08;;;;;;;9.55;4.55;;;;;;;1.12;62.21;99739.69;5059200;28;20136;-92
2022/03/01 04:52:54;;;;;;;10.38;4.90;;;;;;;1.13;60.84;99757.19;5055879;28;20501;-90
2022/03/01 04:55:42;;;;;;;10.65;4.65;;;;;;;1.16;59.88;99737.19;5064608;28;20036;-94
2022/03/01 04:58:29;;;;;;;7.35;4.65;;;;;;;1.22;58.92;99741.72;5037533;28;20041;-93
2022/03/01 05:01:15;;;;;;;10.38;5.40;;;;;;;1.27;57.68;99749.69;5062536;28;20422;-93
2022/03/01 05:04:01;;;;;;;11.00;4.55;;;;;;;1.32;57.20;99761.19;5038385;28;20045;-94
2022/03/01 05:06:47;;;;;;;9.55;4.20;;;;;;;1.28;56.57;99747.13;5052719;28;20044;-95
2022/03/01 05:09:34;;;;;;;7.45;4.07;;;;;;;1.37;56.77;99757.84;5076432;28;20102;-93
2022/03/01 05:12:24;;;;;;;9.20;5.32;;;;;;;1.40;56.57;99763.13;5077085;28;20036;-94
2022/03/01 05:15:11;;;;;;;9.43;4.65;;;;;;;1.41;56.69;99764.94;5076866;28;20400;-93
2022/03/01 05:17:59;;;;;;;8.48;4.30;;;;;;;1.43;57.51;99775.44;5074643;28;20052;-94
2022/03/01 05:20:45;;;;;;;10.40;5.35;;;;;;;1.38;57.24;99761.34;5035477;28;20046;-94
2022/03/01 05:23:32;;;;;;;6.63;3.78;;;;;;;1.32;59.36;99775.16;5075963;28;20512;-94
2022/03/01 05:26:21;;;;;;;7.68;4.28;;;;;;;1.16;59.01;99765.13;5075227;28;20055;-94
2022/03/01 05:29:09;;;;;;;9.30;4.47;;;;;;;1.12;58.66;99771.13;5075526;28;20041;-95
2022/03/01 05:31:57;;;;;;;7.90;4.75;;;;;;;1.23;58.44;99775.81;5067205;28;20068;-94
2022/03/01 05:34:43;;;;;;;5.72;3.78;;;;;;;1.30;59.32;99796.94;5075033;28;20055;-94
2022/03/01 05:37:29;;;;;;;12.00;4.05;;;;;;;1.01;60.06;99768.22;5076764;28;20075;-95
2022/03/01 05:40:17;;;;;;;9.57;4.40;;;;;;;1.00;59.72;99785.69;5073914;28;20059;-96
2022/03/01 05:43:04;;;;;;;6.25;3.97;;;;;;;1.12;59.68;99795.59;5075823;28;20048;-94
2022/03/01 05:45:52;;;;;;;9.45;4.43;;;;;;;0.95;59.59;99766.31;5075811;28;20044;-94
2022/03/01 05:48:38;;;;;;;9.98;4.30;;;;;;;1.01;60.67;99794.41;5076509;28;20056;-94
2022/03/01 05:51:24;;;;;;;11.52;4.50;;;;;;;0.79;62.53;99791.19;5075436;28;20048;-95
2022/03/01 05:54:13;;;;;;;8.98;4.43;;;;;;;0.53;63.61;99764.28;5074092;28;20045;-95
2022/03/01 05:56:59;;;;;;;7.47;4.68;;;;;;;0.66;64.02;99810.00;5074044;28;20046;-95
2022/03/01 05:59:45;;;;;;;7.97;4.20;;;;;;;0.59;62.91;99779.28;5074211;28;20066;-95
2022/03/01 06:02:33;;;;;;;7.60;4.57;;;;;;;0.57;65.38;99794.03;5075045;28;20090;-94
2022/03/01 06:05:19;;;;;;;8.60;4.93;;;;;;;0.45;65.51;99788.44;5075104;28;20044;-96
2022/03/01 06:08:08;;;;;;;8.05;3.97;;;;;;;0.55;64.47;99794.00;5074808;28;20086;-95
2022/03/01 06:10:59;;;;;;;7.65;4.28;;;;;;;0.49;65.72;99792.94;5075743;28;20454;-95
2022/03/01 06:13:46;;;;;;;5.68;4.00;;;;;;;0.61;64.06;99783.72;5074785;28;20577;-96
2022/03/01 06:16:32;;;;;;;9.38;4.20;;;;;;;0.75;64.13;99812.88;5074779;28;20066;-95
2022/03/01 06:19:19;;;;;;;6.90;4.45;;;;;;;0.84;63.26;99780.84;5076143;28;20053;-95
2022/03/01 06:22:06;;;;;;;8.55;4.15;;;;;;;1.02;62.21;99788.34;5075139;28;20041;-95
2022/03/01 06:24:54;;;;;;;8.20;4.45;;;;;;;1.01;62.67;99795.28;5073923;28;20428;-94
2022/03/01 06:27:40;;;;;;;9.55;4.18;;;;;;;1.09;62.60;99806.00;5076623;28;20111;-94
2022/03/01 06:30:27;;;;;;;6.70;3.92;;;;;;;1.05;64.07;99806.75;5073256;28;20049;-93
2022/03/01 06:33:13;;;;;;;7.53;3.63;;;;;;;0.87;65.46;99788.81;5074303;28;20105;-95
2022/03/01 06:36:01;;;;;;;6.53;3.92;;;;;;;0.96;64.63;99798.66;5072970;28;20195;-94
2022/03/01 06:38:47;;;;;;;8.27;4.00;;;;;;;1.09;63.45;99816.47;5074253;28;20072;-95
2022/03/01 06:41:33;;;;;;;8.18;4.70;;;;;;;1.11;63.58;99801.69;5075505;28;20045;-94
2022/03/01 06:44:19;;;;;;;9.05;4.50;;;;;;;1.31;62.75;99814.44;5072419;28;20044;-94
2022/03/01 06:47:06;;;;;;;8.07;4.18;;;;;;;1.35;62.82;99800.59;5074246;28;20134;-96
2022/03/01 06:49:52;;;;;;;10.48;4.75;;;;;;;1.37;64.50;99799.78;5074844;28;20375;-94
2022/03/01 06:52:40;;;;;;;10.00;4.80;;;;;;;1.48;62.83;99786.06;5075981;28;20044;-94
2022/03/01 06:55:27;;;;;;;7.65;4.50;;;;;;;1.92;62.12;99800.25;5074476;28;20060;-94
2022/03/01 06:58:13;;;;;;;6.55;4.30;;;;;;;2.13;61.64;99791.16;5073942;28;20051;-94
2022/03/01 07:01:01;;;;;;;6.57;4.35;;;;;;;2.38;60.80;99800.44;5058261;28;20441;-94
2022/03/01 07:03:47;;;;;;;8.57;4.82;;;;;;;2.49;61.38;99804.19;5055150;28;20049;-95
2022/03/01 07:06:36;;;;;;;7.93;4.78;;;;;;;2.46;61.11;99812.00;5056720;28;20052;-93
2022/03/01 07:09:26;;;;;;;7.78;4.30;;;;;;;2.63;60.80;99802.75;5053835;28;20049;-95
2022/03/01 07:12:12;;;;;;;7.47;4.30;;;;;;;2.73;60.52;99818.69;5064918;28;20041;-94
2022/03/01 07:14:58;;;;;;;6.97;4.35;;;;;;;2.68;62.08;99800.22;5032690;28;20048;-94
2022/03/01 07:17:45;;;;;;;8.10;4.32;;;;;;;2.63;60.54;99818.50;5036739;28;20106;-96
2022/03/01 07:20:35;;;;;;;7.80;4.53;;;;;;;2.66;61.15;99818.56;5033418;28;20529;-95
2022/03/01 07:23:23;;;;;;;9.60;4.40;;;;;;;2.87;60.95;99825.16;5033128;28;20045;-94
2022/03/01 07:26:14;;;;;;;8.25;4.75;;;;;;;2.93;61.14;99830.53;5064627;28;20890;-95
2022/03/01 07:29:00;;;;;;;9.02;5.05;;;;;;;2.79;59.97;99816.22;5070547;28;20174;-94
2022/03/01 07:31:46;;;;;;;9.90;5.40;;;;;;;2.79;60.18;99834.59;5054343;28;20033;-94
2022/03/01 07:34:36;;;;;;;7.90;4.97;;;;;;;2.90;60.03;99833.06;5054076;28;20052;-96
2022/03/01 07:37:22;;;;;;;7.07;4.47;;;;;;;3.01;59.62;99828.91;5064151;28;20490;-95
2022/03/01 07:40:11;;;;;;;8.65;4.97;;;;;;;2.84;60.48;99818.09;5074678;28;20524;-94
2022/03/01 07:42:59;;;;;;;11.02;5.20;;;;;;;2.90;60.19;99817.31;5077388;28;20044;-95
2022/03/01 07:45:45;;;;;;;9.38;5.07;;;;;;;3.17;59.96;99834.50;5079795;28;20048;-94
2022/03/01 07:48:31;;;;;;;9.38;4.82;;;;;;;3.24;60.15;99812.75;5064742;28;20055;-95
2022/03/01 07:51:17;;;;;;;7.57;4.53;;;;;;;3.66;58.69;99817.88;5057827;28;20041;-95
2022/03/01 07:54:04;;;;;;;8.23;4.53;;;;;;;3.75;57.32;99817.16;5058927;28;20391;-93
2022/03/01 07:56:50;;;;;;;8.73;4.90;;;;;;;3.76;56.92;99815.44;5071936;28;20049;-92
2022/03/01 07:59:37;;;;;;;11.45;4.78;;;;;;;3.66;57.16;99820.50;5078542;28;20052;-93
2022/03/01 08:02:23;;;;;;;10.10;5.13;;;;;;;3.75;57.55;99803.13;5077737;28;20102;-93
2022/03/01 08:05:11;;;;;;;7.95;5.32;;;;;;;3.66;57.63;99801.22;5078253;28;20072;-92
2022/03/01 08:07:58;;;;;;;10.68;5.47;;;;;;;3.65;58.25;99823.13;5071510;28;20044;-94
2022/03/01 08:10:44;;;;;;;8.85;4.85;;;;;;;3.80;58.60;99825.16;5076589;28;20069;-93
2022/03/01 08:13:30;;;;;;;10.88;4.90;;;;;;;3.85;58.05;99816.47;5075270;28;20131;-95
2022/03/01 08:16:19;;;;;;;8.18;4.72;;;;;;;3.99;58.12;99824.59;5057456;28;20064;-94
2022/03/01 08:19:06;;;;;;;11.75;6.15;;;;;;;3.91;58.91;99826.22;5057634;28;20171;-95
2022/03/01 08:21:53;;;;;;;12.60;7.18;;;;;;;3.73;59.32;99833.78;5058213;28;20398;-94
2022/03/01 08:24:39;;;;;;;10.35;6.22;;;;;;;3.54;59.57;99816.81;5060837;28;20048;-94
2022/03/01 08:27:25;;;;;;;9.90;5.78;;;;;;;3.56;60.88;99854.53;5057808;28;20378;-94
2022/03/01 08:30:13;;;;;;;10.07;6.50;;;;;;;3.38;60.61;99816.50;5058910;28;20068;-94
2022/03/01 08:33:01;;;;;;;13.23;5.53;;;;;;;4.13;59.16;99834.47;5057423;28;20084;-93
2022/03/01 08:35:48;;;;;;;11.02;6.55;;;;;;;4.17;59.64;99802.06;5059524;28;20068;-93
2022/03/01 08:38:40;;;;;;;17.33;9.95;;;;;;;4.32;59.86;99828.63;5057246;28;20068;-94
2022/03/01 08:41:26;;;;;;;9.25;6.05;;;;;;;4.48;59.63;99825.31;5056974;28;20049;-96
2022/03/01 08:44:12;;;;;;;7.70;5.40;;;;;;;4.62;58.99;99832.53;5066724;28;20041;-93
2022/03/01 08:46:58;;;;;;;13.95;6.70;;;;;;;4.22;61.01;99803.00;5057718;28;20051;-96
2022/03/01 08:49:46;;;;;;;9.70;6.00;;;;;;;4.62;60.18;99824.63;5055332;28;20128;-95
2022/03/01 08:52:32;;;;;;;12.32;6.53;;;;;;;4.87;59.84;99828.50;5057160;28;20051;-93
2022/03/01 08:55:18;;;;;;;17.10;9.73;;;;;;;5.00;60.06;99821.63;5042687;28;20123;-95
2022/03/01 08:58:05;;;;;;;10.25;5.82;;;;;;;5.23;59.47;99829.81;5043512;28;20048;-96
2022/03/01 09:00:51;;;;;;;11.00;5.88;;;;;;;5.15;59.77;99833.22;5058588;28;20486;-95
2022/03/01 09:03:37;;;;;;;16.73;7.47;;;;;;;5.34;59.09;99833.47;5050146;28;20040;-93
2022/03/01 09:06:26;;;;;;;11.02;5.60;;;;;;;4.89;61.19;99861.91;5057374;28;20048;-95
2022/03/01 09:09:12;;;;;;;10.88;6.88;;;;;;;4.86;61.78;99837.28;5056580;28;20044;-92
2022/03/01 09:12:01;;;;;;;7.88;5.07;;;;;;;5.20;59.50;99842.94;5076184;28;20076;-92
2022/03/01 09:14:47;;;;;;;9.63;5.43;;;;;;;5.66;58.13;99844.34;5050852;28;20069;-94
2022/03/01 09:17:33;;;;;;;10.38;5.75;;;;;;;6.03;57.00;99825.34;5055715;28;20045;-90
2022/03/01 09:20:19;;;;;;;8.52;5.90;;;;;;;5.77;57.32;99823.34;5055057;28;20128;-95
2022/03/01 09:23:07;;;;;;;10.27;6.60;;;;;;;6.22;55.40;99845.75;5056209;28;20092;-94
2022/03/01 09:25:56;;;;;;;10.35;6.13;;;;;;;6.43;54.92;99812.44;5055993;28;20041;-96
2022/03/01 09:28:43;;;;;;;8.75;5.00;;;;;;;6.51;55.17;99831.88;5044146;28;20041;-96
2022/03/01 09:31:29;;;;;;;7.80;5.22;;;;;;;6.51;54.80;99832.75;5059242;28;20056;-93
2022/03/01 09:34:15;;;;;;;7.80;4.63;;;;;;;6.37;54.14;99853.78;5054616;28;20044;-92
2022/03/01 09:37:01;;;;;;;10.60;5.25;;;;;;;6.23;54.93;99844.88;5056149;28;20115;-93
2022/03/01 09:39:50;;;;;;;8.55;5.00;;;;;;;6.35;55.35;99838.78;5057443;28;20505;-92
2022/03/01 09:42:36;;;;;;;9.02;5.40;;;;;;;5.89;56.92;99836.63;5057123;28;20048;-91
2022/03/01 09:45:22;;;;;;;9.27;5.40;;;;;;;6.19;56.38;99837.81;5056775;28;20037;-92
2022/03/01 09:48:09;;;;;;;10.77;6.32;;;;;;;6.22;56.40;99836.94;5037014;28;20117;-93
2022/03/01 09:50:58;;;;;;;9.55;5.55;;;;;;;6.55;54.87;99823.97;5046381;28;20044;-93
2022/03/01 09:53:47;;;;;;;11.13;6.13;;;;;;;6.28;56.04;99832.59;5054144;28;20033;-93
2022/03/01 09:56:36;;;;;;;15.23;6.70;;;;;;;5.85;55.28;99824.28;5055926;28;20041;-95
2022/03/01 09:59:22;;;;;;;;;;;;;;;5.43;57.26;99837.94;5057691;28;20045;-95
2022/03/01 10:02:09;;;;;;;8.63;5.47;;;;;;;5.36;55.61;99831.72;5055123;28;19925;-94
2022/03/01 10:04:57;;;;;;;9.63;6.13;;;;;;;5.40;55.96;99837.91;5053497;28;20041;-93
2022/03/01 10:07:45;;;;;;;10.70;5.78;;;;;;;5.34;55.08;99822.91;5055625;28;20041;-92
2022/03/01 10:10:36;;;;;;;13.55;6.55;;;;;;;5.24;56.01;99835.09;5056159;28;20037;-92
2022/03/01 10:13:25;;;;;;;10.35;6.20;;;;;;;6.03;54.95;99841.19;5054718;28;20773;-93
2022/03/01 10:16:13;;;;;;;12.43;5.68;;;;;;;5.82;54.32;99820.75;5054954;28;20049;-93
2022/03/01 10:19:00;;;;;;;10.15;6.70;;;;;;;5.49;55.43;99825.72;5054052;28;20053;-93
2022/03/01 10:21:48;;;;;;;10.88;5.43;;;;;;;5.18;56.77;99832.38;5055009;28;20044;-93
2022/03/01 10:24:34;;;;;;;11.90;7.38;;;;;;;4.98;56.98;99842.69;5055351;28;20510;-93
2022/03/01 10:27:27;;;;;;;10.60;5.60;;;;;;;4.98;58.70;99865.53;5054400;28;20037;-93
2022/03/01 10:30:22;;;;;;;12.02;7.22;;;;;;;5.01;58.60;99840.13;5053789;28;20377;-93
2022/03/01 10:33:10;;;;;;;11.35;6.05;;;;;;;5.20;59.64;99871.97;5056038;28;20056;-93
2022/03/01 10:36:00;;;;;;;21.30;10.60;;;;;;;4.79;58.33;99865.28;5054746;28;20052;-92
2022/03/01 10:38:53;;;;;;;22.50;12.27;;;;;;;4.68;58.54;99854.63;5040761;28;20095;-93
2022/03/01 10:41:43;;;;;;;18.27;8.85;;;;;;;4.65;59.46;99856.31;5063317;28;20129;-94
2022/03/01 10:44:32;;;;;;;11.52;7.43;;;;;;;4.40;60.41;99874.41;5057614;28;20041;-95
2022/03/01 10:47:20;;;;;;;11.45;6.30;;;;;;;4.46;61.36;99870.94;5053803;28;20049;-91
2022/03/01 10:50:09;;;;;;;11.07;7.18;;;;;;;4.36;60.88;99875.22;5052480;28;20041;-95
2022/03/01 10:52:56;;;;;;;12.25;6.90;;;;;;;4.41;61.61;99854.22;5054323;28;20040;-93
2022/03/01 10:55:43;;;;;;;9.68;5.68;;;;;;;4.59;61.74;99874.66;5054671;28;20044;-95
2022/03/01 10:58:30;;;;;;;7.93;4.78;;;;;;;4.88;61.67;99885.59;5055862;28;20071;-93
2022/03/01 11:01:16;;;;;;;9.70;5.72;;;;;;;5.18;59.93;99864.03;5053786;28;20045;-93
2022/03/01 11:04:07;;;;;;;7.88;5.15;;;;;;;5.43;57.92;99869.59;5052429;28;20123;-90
2022/03/01 11:06:55;;;;;;;10.00;5.88;;;;;;;5.45;59.32;99875.78;5056842;28;20041;-93
2022/03/01 11:09:44;;;;;;;8.43;5.38;;;;;;;5.46;58.13;99859.94;5069983;28;20453;-95
2022/03/01 11:12:30;;;;;;;10.30;5.15;;;;;;;5.41;58.63;99861.66;5054851;28;20073;-95
2022/03/01 11:15:44;;;;;;;7.75;5.65;;;;;;;5.00;58.92;99853.25;5058110;28;20136;-94
2022/03/01 11:18:39;;;;;;;10.95;5.30;;;;;;;5.08;59.72;99856.88;5056437;28;20055;-95
2022/03/01 11:21:28;;;;;;;11.20;5.90;;;;;;;4.73;58.87;99847.66;5057065;28;20041;-94
2022/03/01 11:24:18;;;;;;;8.38;5.45;;;;;;;4.63;59.23;99850.13;5054633;28;20052;-95
2022/03/01 11:27:06;;;;;;;7.50;5.07;;;;;;;4.99;58.65;99860.28;5054234;28;20041;-94
2022/03/01 11:30:03;;;;;;;12.50;6.85;;;;;;;5.06;59.01;99842.81;5053521;28;20103;-94
2022/03/01 11:32:56;;;;;;;12.32;6.20;;;;;;;5.37;57.39;99844.03;5053447;28;20059;-95
2022/03/01 11:35:50;;;;;;;10.32;5.82;;;;;;;5.62;56.76;99850.47;5053866;28;20099;-95
2022/03/01 11:38:43;;;;;;;9.55;6.22;;;;;;;5.53;56.29;99830.16;5056002;28;20041;-93
2022/03/01 11:41:40;;;;;;;8.68;4.80;;;;;;;6.23;54.13;99825.53;5073643;28;20064;-94
2022/03/01 11:44:33;;;;;;;8.57;5.32;;;;;;;5.86;55.12;99814.63;5076115;28;20037;-96
2022/03/01 11:47:25;;;;;;;10.27;6.25;;;;;;;5.62;54.62;99812.66;5066947;28;20144;-93
2022/03/01 11:50:14;;;;;;;9.43;5.47;;;;;;;6.12;54.44;99799.91;5058059;28;20072;-93
2022/03/01 11:53:06;;;;;;;12.73;5.80;;;;;;;6.49;53.00;99783.41;5057327;28;20045;-96
2022/03/01 11:55:56;;;;;;;9.15;5.55;;;;;;;6.51;52.75;99823.94;5058654;28;20041;-95
2022/03/01 11:58:49;;;;;;;8.55;4.65;;;;;;;6.62;50.09;99776.44;5056977;28;20048;-96
2022/03/01 12:01:36;;;;;;;7.40;4.15;;;;;;;6.21;50.72;99798.22;5054400;28;20041;-93
2022/03/01 12:04:26;;;;;;;9.80;5.43;;;;;;;5.75;51.66;99818.03;5054873;28;20049;-92
2022/03/01 12:07:17;;;;;;;7.13;4.78;;;;;;;6.00;50.95;99770.75;5054398;28;20049;-94
2022/03/01 12:10:05;;;;;;;7.10;4.63;;;;;;;6.45;51.50;99771.94;5053882;28;20041;-93
2022/03/01 12:12:55;;;;;;;10.82;5.60;;;;;;;5.93;50.56;99759.22;5049671;28;20053;-93
2022/03/01 12:15:41;;;;;;;10.55;5.82;;;;;;;5.79;51.02;99774.09;5064490;28;20044;-94
2022/03/01 12:18:31;;;;;;;9.98;5.35;;;;;;;5.67;51.94;99779.25;5065086;28;20129;-95
2022/03/01 12:21:17;;;;;;;;;;;;;;;6.36;50.30;99782.47;5056982;28;20513;-96
2022/03/01 12:24:05;;;;;;;9.73;4.88;;;;;;;6.72;48.58;99771.22;5056062;28;19921;-94
2022/03/01 12:26:53;;;;;;;7.68;4.90;;;;;;;6.55;47.65;99741.19;5056407;28;20070;-95
2022/03/01 12:29:46;;;;;;;7.22;4.72;;;;;;;6.99;44.80;99729.88;5059445;28;20138;-95
2022/03/01 12:32:36;;;;;;;6.43;4.13;;;;;;;6.83;43.24;99717.47;5061891;28;20052;-95
2022/03/01 12:35:24;;;;;;;7.43;4.32;;;;;;;7.20;45.37;99752.88;5059570;28;20495;-95
2022/03/01 12:38:12;;;;;;;8.82;4.63;;;;;;;7.41;42.89;99722.88;5062274;28;20046;-95